sensor_id;sensor_type;location;lat;lon;timestamp;temperature;humidity
7384;DHT22;3733;47.994;8.820;2022-09-27T00:01:24;9.70;99.90
7384;DHT22;3733;47.994;8.820;2022-09-27T00:03:52;9.70;99.90
7384;DHT22;3733;47.994;8.820;2022-09-27T00:06:23;9.60;99.90
7384;DHT22;3733;47.994;8.820;2022-09-27T00:08:49;9.60;99.90
7384;DHT22;3733;47.994;8.820;2022-09-27T00:11:33;9.60;99.90
7384;DHT22;3733;47.994;8.820;2022-09-27T00:13:59;9.60;99.90
7384;DHT22;3733;47.994;8.820;2022-09-27T00:16:30;9.60;99.90
7384;DHT22;3733;47.994;8.820;2022-09-27T00:19:01;9.60;99.90
7384;DHT22;3733;47.994;8.820;2022-09-27T00:21:28;9.60;99.90
7384;DHT22;3733;47.994;8.820;2022-09-27T00:23:55;9.60;99.90
7384;DHT22;3733;47.994;8.820;2022-09-27T00:26:21;9.60;99.90
7384;DHT22;3733;47.994;8.820;2022-09-27T00:28:47;9.60;99.90
7384;DHT22;3733;47.994;8.820;2022-09-27T00:31:22;9.60;99.90
7384;DHT22;3733;47.994;8.820;2022-09-27T00:33:49;9.60;99.90
7384;DHT22;3733;47.994;8.820;2022-09-27T00:36:16;9.50;99.90
7384;DHT22;3733;47.994;8.820;2022-09-27T00:38:42;9.50;99.90
7384;DHT22;3733;47.994;8.820;2022-09-27T00:41:29;9.50;99.90
7384;DHT22;3733;47.994;8.820;2022-09-27T00:43:57;9.50;99.90
7384;DHT22;3733;47.994;8.820;2022-09-27T00:46:42;9.50;99.90
7384;DHT22;3733;47.994;8.820;2022-09-27T00:49:40;9.50;99.90
7384;DHT22;3733;47.994;8.820;2022-09-27T00:52:15;9.50;99.90
7384;DHT22;3733;47.994;8.820;2022-09-27T00:54:44;9.50;99.90
7384;DHT22;3733;47.994;8.820;2022-09-27T00:57:11;9.50;99.90
7384;DHT22;3733;47.994;8.820;2022-09-27T00:59:49;9.50;99.90
7384;DHT22;3733;47.994;8.820;2022-09-27T01:02:15;9.50;99.90
7384;DHT22;3733;47.994;8.820;2022-09-27T01:04:42;9.50;99.90
7384;DHT22;3733;47.994;8.820;2022-09-27T01:07:08;9.50;99.90
7384;DHT22;3733;47.994;8.820;2022-09-27T01:09:34;9.50;99.90
7384;DHT22;3733;47.994;8.820;2022-09-27T01:14:59;9.50;99.90
7384;DHT22;3733;47.994;8.820;2022-09-27T01:17:59;9.50;99.90
7384;DHT22;3733;47.994;8.820;2022-09-27T01:28:54;9.50;99.90
7384;DHT22;3733;47.994;8.820;2022-09-27T01:31:31;9.50;99.90
7384;DHT22;3733;47.994;8.820;2022-09-27T01:45:32;9.40;99.90
7384;DHT22;3733;47.994;8.820;2022-09-27T01:48:06;9.40;99.90
7384;DHT22;3733;47.994;8.820;2022-09-27T01:50:41;9.40;99.90
7384;DHT22;3733;47.994;8.820;2022-09-27T01:53:38;9.40;99.90
7384;DHT22;3733;47.994;8.820;2022-09-27T01:56:09;9.30;99.90
7384;DHT22;3733;47.994;8.820;2022-09-27T01:58:41;9.30;99.90
7384;DHT22;3733;47.994;8.820;2022-09-27T02:01:10;9.30;99.90
7384;DHT22;3733;47.994;8.820;2022-09-27T02:03:41;9.30;99.90
7384;DHT22;3733;47.994;8.820;2022-09-27T02:06:28;9.30;99.90
7384;DHT22;3733;47.994;8.820;2022-09-27T02:09:23;9.30;99.90
7384;DHT22;3733;47.994;8.820;2022-09-27T02:11:56;9.30;99.90
7384;DHT22;3733;47.994;8.820;2022-09-27T02:14:30;9.30;99.90
7384;DHT22;3733;47.994;8.820;2022-09-27T02:20:01;9.30;99.90
7384;DHT22;3733;47.994;8.820;2022-09-27T02:30:17;9.30;99.90
7384;DHT22;3733;47.994;8.820;2022-09-27T02:32:43;9.30;99.90
7384;DHT22;3733;47.994;8.820;2022-09-27T02:35:32;9.30;99.90
7384;DHT22;3733;47.994;8.820;2022-09-27T02:37:58;9.30;99.90
7384;DHT22;3733;47.994;8.820;2022-09-27T02:40:30;9.30;99.90
7384;DHT22;3733;47.994;8.820;2022-09-27T02:42:57;9.30;99.90
7384;DHT22;3733;47.994;8.820;2022-09-27T02:45:31;9.30;99.90
7384;DHT22;3733;47.994;8.820;2022-09-27T02:51:07;9.40;99.90
7384;DHT22;3733;47.994;8.820;2022-09-27T02:56:35;9.30;99.90
7384;DHT22;3733;47.994;8.820;2022-09-27T03:04:35;9.30;99.90
7384;DHT22;3733;47.994;8.820;2022-09-27T03:07:03;9.20;99.90
7384;DHT22;3733;47.994;8.820;2022-09-27T03:09:43;9.20;99.90
7384;DHT22;3733;47.994;8.820;2022-09-27T03:12:09;9.20;99.90
7384;DHT22;3733;47.994;8.820;2022-09-27T03:14:35;9.30;99.90
7384;DHT22;3733;47.994;8.820;2022-09-27T03:17:00;9.20;99.90
7384;DHT22;3733;47.994;8.820;2022-09-27T03:19:26;9.20;99.90
7384;DHT22;3733;47.994;8.820;2022-09-27T03:21:52;9.20;99.90
7384;DHT22;3733;47.994;8.820;2022-09-27T03:24:18;9.20;99.90
7384;DHT22;3733;47.994;8.820;2022-09-27T03:26:44;9.20;99.90
7384;DHT22;3733;47.994;8.820;2022-09-27T03:29:09;9.20;99.90
7384;DHT22;3733;47.994;8.820;2022-09-27T03:31:35;9.20;99.90
7384;DHT22;3733;47.994;8.820;2022-09-27T03:34:01;9.20;99.90
7384;DHT22;3733;47.994;8.820;2022-09-27T03:36:27;9.20;99.90
7384;DHT22;3733;47.994;8.820;2022-09-27T03:38:53;9.20;99.90
7384;DHT22;3733;47.994;8.820;2022-09-27T03:41:19;9.10;99.90
7384;DHT22;3733;47.994;8.820;2022-09-27T03:43:44;9.10;99.90
7384;DHT22;3733;47.994;8.820;2022-09-27T03:46:10;9.10;99.90
7384;DHT22;3733;47.994;8.820;2022-09-27T03:48:36;9.10;99.90
7384;DHT22;3733;47.994;8.820;2022-09-27T03:51:02;9.00;99.90
7384;DHT22;3733;47.994;8.820;2022-09-27T03:53:29;9.00;99.90
7384;DHT22;3733;47.994;8.820;2022-09-27T03:55:54;9.00;99.90
7384;DHT22;3733;47.994;8.820;2022-09-27T03:58:20;9.00;99.90
7384;DHT22;3733;47.994;8.820;2022-09-27T04:00:46;9.00;99.90
7384;DHT22;3733;47.994;8.820;2022-09-27T04:03:12;8.90;99.90
7384;DHT22;3733;47.994;8.820;2022-09-27T04:05:38;8.90;99.90
7384;DHT22;3733;47.994;8.820;2022-09-27T04:08:04;8.90;99.90
7384;DHT22;3733;47.994;8.820;2022-09-27T04:10:31;8.90;99.90
7384;DHT22;3733;47.994;8.820;2022-09-27T04:12:56;8.90;99.90
7384;DHT22;3733;47.994;8.820;2022-09-27T04:15:22;8.90;99.90
7384;DHT22;3733;47.994;8.820;2022-09-27T04:17:49;8.90;99.90
7384;DHT22;3733;47.994;8.820;2022-09-27T04:20:15;8.90;99.90
7384;DHT22;3733;47.994;8.820;2022-09-27T04:22:40;8.90;99.90
7384;DHT22;3733;47.994;8.820;2022-09-27T04:25:09;8.90;99.90
7384;DHT22;3733;47.994;8.820;2022-09-27T04:27:34;8.90;99.90
7384;DHT22;3733;47.994;8.820;2022-09-27T04:30:00;8.90;99.90
7384;DHT22;3733;47.994;8.820;2022-09-27T04:32:26;8.90;99.90
7384;DHT22;3733;47.994;8.820;2022-09-27T04:34:51;8.90;99.90
7384;DHT22;3733;47.994;8.820;2022-09-27T04:37:36;8.90;99.90
7384;DHT22;3733;47.994;8.820;2022-09-27T04:40:03;8.90;99.90
7384;DHT22;3733;47.994;8.820;2022-09-27T04:42:29;8.90;99.90
7384;DHT22;3733;47.994;8.820;2022-09-27T04:44:54;8.90;99.90
7384;DHT22;3733;47.994;8.820;2022-09-27T04:47:20;8.80;99.90
7384;DHT22;3733;47.994;8.820;2022-09-27T04:49:46;8.80;99.90
7384;DHT22;3733;47.994;8.820;2022-09-27T04:52:12;8.80;99.90
7384;DHT22;3733;47.994;8.820;2022-09-27T04:54:40;8.80;99.90
7384;DHT22;3733;47.994;8.820;2022-09-27T04:57:06;8.80;99.90
7384;DHT22;3733;47.994;8.820;2022-09-27T04:59:31;8.80;99.90
7384;DHT22;3733;47.994;8.820;2022-09-27T05:01:57;8.70;99.90
7384;DHT22;3733;47.994;8.820;2022-09-27T05:04:26;8.70;99.90
7384;DHT22;3733;47.994;8.820;2022-09-27T05:06:52;8.70;99.90
7384;DHT22;3733;47.994;8.820;2022-09-27T05:09:18;8.70;99.90
7384;DHT22;3733;47.994;8.820;2022-09-27T05:11:44;8.70;99.90
7384;DHT22;3733;47.994;8.820;2022-09-27T05:14:09;8.70;99.90
7384;DHT22;3733;47.994;8.820;2022-09-27T05:16:36;8.70;99.90
7384;DHT22;3733;47.994;8.820;2022-09-27T05:19:02;8.60;99.90
7384;DHT22;3733;47.994;8.820;2022-09-27T05:21:28;8.60;99.90
7384;DHT22;3733;47.994;8.820;2022-09-27T05:23:54;8.60;99.90
7384;DHT22;3733;47.994;8.820;2022-09-27T05:26:19;8.60;99.90
7384;DHT22;3733;47.994;8.820;2022-09-27T05:28:45;8.60;99.90
7384;DHT22;3733;47.994;8.820;2022-09-27T05:31:12;8.60;99.90
7384;DHT22;3733;47.994;8.820;2022-09-27T05:33:39;8.60;99.90
7384;DHT22;3733;47.994;8.820;2022-09-27T05:36:05;8.50;99.90
7384;DHT22;3733;47.994;8.820;2022-09-27T05:38:31;8.50;99.90
7384;DHT22;3733;47.994;8.820;2022-09-27T05:40:57;8.50;99.90
7384;DHT22;3733;47.994;8.820;2022-09-27T05:43:23;8.60;99.90
7384;DHT22;3733;47.994;8.820;2022-09-27T05:45:49;8.50;99.90
7384;DHT22;3733;47.994;8.820;2022-09-27T05:48:17;8.50;99.90
7384;DHT22;3733;47.994;8.820;2022-09-27T05:50:43;8.50;99.90
7384;DHT22;3733;47.994;8.820;2022-09-27T05:53:10;8.40;99.90
7384;DHT22;3733;47.994;8.820;2022-09-27T05:55:36;8.40;99.90
7384;DHT22;3733;47.994;8.820;2022-09-27T05:58:04;8.30;99.90
7384;DHT22;3733;47.994;8.820;2022-09-27T06:00:31;8.30;99.90
7384;DHT22;3733;47.994;8.820;2022-09-27T06:02:58;8.30;99.90
7384;DHT22;3733;47.994;8.820;2022-09-27T06:05:27;8.30;99.90
7384;DHT22;3733;47.994;8.820;2022-09-27T06:08:02;8.30;99.90
7384;DHT22;3733;47.994;8.820;2022-09-27T06:10:29;8.30;99.90
7384;DHT22;3733;47.994;8.820;2022-09-27T06:13:00;8.30;99.90
7384;DHT22;3733;47.994;8.820;2022-09-27T06:15:27;8.30;99.90
7384;DHT22;3733;47.994;8.820;2022-09-27T06:17:53;8.30;99.90
7384;DHT22;3733;47.994;8.820;2022-09-27T06:20:20;8.30;99.90
7384;DHT22;3733;47.994;8.820;2022-09-27T06:22:45;8.40;99.90
7384;DHT22;3733;47.994;8.820;2022-09-27T06:25:11;8.40;99.90
7384;DHT22;3733;47.994;8.820;2022-09-27T06:27:37;8.40;99.90
7384;DHT22;3733;47.994;8.820;2022-09-27T06:30:06;8.50;99.90
7384;DHT22;3733;47.994;8.820;2022-09-27T06:32:32;8.50;99.90
7384;DHT22;3733;47.994;8.820;2022-09-27T06:34:57;8.60;99.90
7384;DHT22;3733;47.994;8.820;2022-09-27T06:37:26;8.60;99.90
7384;DHT22;3733;47.994;8.820;2022-09-27T06:39:54;8.70;99.90
7384;DHT22;3733;47.994;8.820;2022-09-27T06:42:20;8.70;99.90
7384;DHT22;3733;47.994;8.820;2022-09-27T06:44:46;8.60;99.90
7384;DHT22;3733;47.994;8.820;2022-09-27T06:47:17;8.60;99.90
7384;DHT22;3733;47.994;8.820;2022-09-27T06:49:43;8.70;99.90
7384;DHT22;3733;47.994;8.820;2022-09-27T06:52:09;8.70;99.90
7384;DHT22;3733;47.994;8.820;2022-09-27T06:54:35;8.70;99.90
7384;DHT22;3733;47.994;8.820;2022-09-27T06:57:01;8.70;99.90
7384;DHT22;3733;47.994;8.820;2022-09-27T06:59:27;8.70;99.90
7384;DHT22;3733;47.994;8.820;2022-09-27T07:02:11;8.70;99.90
7384;DHT22;3733;47.994;8.820;2022-09-27T07:04:38;8.70;99.90
7384;DHT22;3733;47.994;8.820;2022-09-27T07:07:04;8.70;99.90
7384;DHT22;3733;47.994;8.820;2022-09-27T07:09:30;8.70;99.90
7384;DHT22;3733;47.994;8.820;2022-09-27T07:11:56;8.70;99.90
7384;DHT22;3733;47.994;8.820;2022-09-27T07:14:22;8.70;99.90
7384;DHT22;3733;47.994;8.820;2022-09-27T07:16:47;8.70;99.90
7384;DHT22;3733;47.994;8.820;2022-09-27T07:19:13;8.70;99.90
7384;DHT22;3733;47.994;8.820;2022-09-27T07:21:40;8.80;99.90
7384;DHT22;3733;47.994;8.820;2022-09-27T07:24:05;8.80;99.90
7384;DHT22;3733;47.994;8.820;2022-09-27T07:26:31;8.80;99.90
7384;DHT22;3733;47.994;8.820;2022-09-27T07:28:56;8.80;99.90
7384;DHT22;3733;47.994;8.820;2022-09-27T07:31:22;8.90;99.90
7384;DHT22;3733;47.994;8.820;2022-09-27T07:33:49;8.90;99.90
7384;DHT22;3733;47.994;8.820;2022-09-27T07:36:14;8.90;99.90
7384;DHT22;3733;47.994;8.820;2022-09-27T07:38:40;8.90;99.90
7384;DHT22;3733;47.994;8.820;2022-09-27T07:41:11;8.90;99.90
7384;DHT22;3733;47.994;8.820;2022-09-27T07:43:41;8.80;99.90
7384;DHT22;3733;47.994;8.820;2022-09-27T07:46:09;8.80;99.90
7384;DHT22;3733;47.994;8.820;2022-09-27T07:48:35;8.90;99.90
7384;DHT22;3733;47.994;8.820;2022-09-27T07:51:01;9.00;99.90
7384;DHT22;3733;47.994;8.820;2022-09-27T07:53:26;9.00;99.90
7384;DHT22;3733;47.994;8.820;2022-09-27T07:55:53;9.00;99.90
7384;DHT22;3733;47.994;8.820;2022-09-27T07:58:19;9.00;99.90
7384;DHT22;3733;47.994;8.820;2022-09-27T08:00:45;8.90;99.90
7384;DHT22;3733;47.994;8.820;2022-09-27T08:03:13;8.90;99.90
7384;DHT22;3733;47.994;8.820;2022-09-27T08:05:45;8.80;99.90
7384;DHT22;3733;47.994;8.820;2022-09-27T08:08:12;8.80;99.90
7384;DHT22;3733;47.994;8.820;2022-09-27T08:10:38;8.80;99.90
7384;DHT22;3733;47.994;8.820;2022-09-27T08:13:09;8.80;99.90
7384;DHT22;3733;47.994;8.820;2022-09-27T08:15:35;8.80;99.90
7384;DHT22;3733;47.994;8.820;2022-09-27T08:18:03;8.90;99.90
7384;DHT22;3733;47.994;8.820;2022-09-27T08:20:28;8.90;99.90
7384;DHT22;3733;47.994;8.820;2022-09-27T08:22:54;8.90;99.90
7384;DHT22;3733;47.994;8.820;2022-09-27T08:25:20;9.00;99.90
7384;DHT22;3733;47.994;8.820;2022-09-27T08:27:59;9.00;99.90
7384;DHT22;3733;47.994;8.820;2022-09-27T08:30:26;9.10;99.90
7384;DHT22;3733;47.994;8.820;2022-09-27T08:32:56;9.20;99.90
7384;DHT22;3733;47.994;8.820;2022-09-27T08:35:22;9.30;99.90
7384;DHT22;3733;47.994;8.820;2022-09-27T08:37:58;9.30;99.90
7384;DHT22;3733;47.994;8.820;2022-09-27T08:43:05;9.60;99.90
7384;DHT22;3733;47.994;8.820;2022-09-27T08:45:41;9.60;99.90
7384;DHT22;3733;47.994;8.820;2022-09-27T08:48:10;9.50;99.90
7384;DHT22;3733;47.994;8.820;2022-09-27T08:50:40;9.50;99.90
7384;DHT22;3733;47.994;8.820;2022-09-27T09:00:55;9.30;99.90
7384;DHT22;3733;47.994;8.820;2022-09-27T09:03:24;9.30;99.90
7384;DHT22;3733;47.994;8.820;2022-09-27T09:09:26;9.40;99.90
7384;DHT22;3733;47.994;8.820;2022-09-27T09:12:07;9.30;99.90
7384;DHT22;3733;47.994;8.820;2022-09-27T09:15:09;9.30;99.90
7384;DHT22;3733;47.994;8.820;2022-09-27T09:31:33;9.50;99.90
7384;DHT22;3733;47.994;8.820;2022-09-27T09:34:17;9.70;99.90
7384;DHT22;3733;47.994;8.820;2022-09-27T09:36:55;9.80;99.90
7384;DHT22;3733;47.994;8.820;2022-09-27T09:39:41;9.80;99.90
7384;DHT22;3733;47.994;8.820;2022-09-27T09:49:57;9.90;99.90
7384;DHT22;3733;47.994;8.820;2022-09-27T09:52:39;9.90;99.90
7384;DHT22;3733;47.994;8.820;2022-09-27T09:55:16;9.80;99.90
7384;DHT22;3733;47.994;8.820;2022-09-27T10:00:50;9.60;99.90
7384;DHT22;3733;47.994;8.820;2022-09-27T10:03:18;9.50;99.90
7384;DHT22;3733;47.994;8.820;2022-09-27T10:05:45;9.40;99.90
7384;DHT22;3733;47.994;8.820;2022-09-27T10:08:19;9.30;99.90
7384;DHT22;3733;47.994;8.820;2022-09-27T10:10:46;9.30;99.90
7384;DHT22;3733;47.994;8.820;2022-09-27T10:13:16;9.30;99.90
7384;DHT22;3733;47.994;8.820;2022-09-27T10:15:45;9.40;99.90
7384;DHT22;3733;47.994;8.820;2022-09-27T10:18:17;9.40;99.90
7384;DHT22;3733;47.994;8.820;2022-09-27T10:20:56;9.50;99.90
7384;DHT22;3733;47.994;8.820;2022-09-27T10:23:23;9.60;99.90
7384;DHT22;3733;47.994;8.820;2022-09-27T10:28:41;9.70;99.90
7384;DHT22;3733;47.994;8.820;2022-09-27T10:31:19;9.80;99.90
7384;DHT22;3733;47.994;8.820;2022-09-27T10:36:31;10.20;99.90
7384;DHT22;3733;47.994;8.820;2022-09-27T10:38:59;10.20;99.90
7384;DHT22;3733;47.994;8.820;2022-09-27T10:41:35;10.30;99.90
7384;DHT22;3733;47.994;8.820;2022-09-27T10:46:57;10.90;99.90
7384;DHT22;3733;47.994;8.820;2022-09-27T10:49:45;11.10;99.90
7384;DHT22;3733;47.994;8.820;2022-09-27T10:52:22;11.10;99.90
7384;DHT22;3733;47.994;8.820;2022-09-27T10:54:54;11.10;99.90
7384;DHT22;3733;47.994;8.820;2022-09-27T10:57:22;11.10;99.90
7384;DHT22;3733;47.994;8.820;2022-09-27T11:00:35;11.20;99.90
7384;DHT22;3733;47.994;8.820;2022-09-27T11:02:41;11.40;99.90
7384;DHT22;3733;47.994;8.820;2022-09-27T11:05:29;11.60;99.90
7384;DHT22;3733;47.994;8.820;2022-09-27T11:07:58;11.90;99.90
7384;DHT22;3733;47.994;8.820;2022-09-27T11:10:30;12.20;99.90
7384;DHT22;3733;47.994;8.820;2022-09-27T11:30:10;10.70;99.90
7384;DHT22;3733;47.994;8.820;2022-09-27T11:38:55;11.20;99.90
7384;DHT22;3733;47.994;8.820;2022-09-27T11:52:40;11.10;99.90
7384;DHT22;3733;47.994;8.820;2022-09-27T11:58:12;10.90;99.70
7384;DHT22;3733;47.994;8.820;2022-09-27T12:09:11;11.10;99.90
7384;DHT22;3733;47.994;8.820;2022-09-27T12:11:53;11.20;99.90
7384;DHT22;3733;47.994;8.820;2022-09-27T12:16:55;11.10;93.70
7384;DHT22;3733;47.994;8.820;2022-09-27T12:19:25;11.10;95.20
7384;DHT22;3733;47.994;8.820;2022-09-27T12:21:55;11.10;95.10
7384;DHT22;3733;47.994;8.820;2022-09-27T12:24:22;11.10;94.80
7384;DHT22;3733;47.994;8.820;2022-09-27T12:27:07;11.10;99.40
7384;DHT22;3733;47.994;8.820;2022-09-27T12:29:36;11.30;96.90
7384;DHT22;3733;47.994;8.820;2022-09-27T12:35:07;11.40;87.10
7384;DHT22;3733;47.994;8.820;2022-09-27T12:40:33;11.40;91.70
7384;DHT22;3733;47.994;8.820;2022-09-27T12:43:17;11.50;90.80
7384;DHT22;3733;47.994;8.820;2022-09-27T12:48:57;11.70;92.10
7384;DHT22;3733;47.994;8.820;2022-09-27T12:51:33;11.60;93.30
7384;DHT22;3733;47.994;8.820;2022-09-27T12:59:23;11.10;97.60
7384;DHT22;3733;47.994;8.820;2022-09-27T13:07:49;11.60;99.90
7384;DHT22;3733;47.994;8.820;2022-09-27T13:13:20;11.90;99.90
7384;DHT22;3733;47.994;8.820;2022-09-27T13:15:47;11.70;99.90
7384;DHT22;3733;47.994;8.820;2022-09-27T13:21:03;11.80;99.90
7384;DHT22;3733;47.994;8.820;2022-09-27T13:25:59;12.50;99.90
7384;DHT22;3733;47.994;8.820;2022-09-27T13:31:10;12.60;98.90
7384;DHT22;3733;47.994;8.820;2022-09-27T13:46:52;11.70;99.90
7384;DHT22;3733;47.994;8.820;2022-09-27T13:49:30;11.50;99.90
7384;DHT22;3733;47.994;8.820;2022-09-27T13:52:18;11.20;99.90
7384;DHT22;3733;47.994;8.820;2022-09-27T13:54:53;11.10;99.90
7384;DHT22;3733;47.994;8.820;2022-09-27T14:00:18;10.80;99.90
7384;DHT22;3733;47.994;8.820;2022-09-27T14:05:18;10.60;99.90
7384;DHT22;3733;47.994;8.820;2022-09-27T14:07:45;10.50;99.90
7384;DHT22;3733;47.994;8.820;2022-09-27T14:10:17;10.50;99.90
7384;DHT22;3733;47.994;8.820;2022-09-27T14:12:46;10.40;99.90
7384;DHT22;3733;47.994;8.820;2022-09-27T14:15:27;10.40;99.90
7384;DHT22;3733;47.994;8.820;2022-09-27T14:17:54;10.30;99.90
7384;DHT22;3733;47.994;8.820;2022-09-27T14:22:57;10.10;99.90
7384;DHT22;3733;47.994;8.820;2022-09-27T14:25:22;10.10;99.90
7384;DHT22;3733;47.994;8.820;2022-09-27T14:27:50;10.10;99.90
7384;DHT22;3733;47.994;8.820;2022-09-27T14:30:22;10.00;99.90
7384;DHT22;3733;47.994;8.820;2022-09-27T14:32:50;10.00;99.90
7384;DHT22;3733;47.994;8.820;2022-09-27T14:35:27;9.90;99.90
7384;DHT22;3733;47.994;8.820;2022-09-27T14:38:15;9.80;99.90
7384;DHT22;3733;47.994;8.820;2022-09-27T14:41:01;9.80;99.90
7384;DHT22;3733;47.994;8.820;2022-09-27T14:43:28;9.80;99.90
7384;DHT22;3733;47.994;8.820;2022-09-27T14:46:03;9.80;99.90
7384;DHT22;3733;47.994;8.820;2022-09-27T14:48:36;9.80;99.90
7384;DHT22;3733;47.994;8.820;2022-09-27T14:53:54;9.80;99.90
7384;DHT22;3733;47.994;8.820;2022-09-27T14:56:28;9.80;99.90
7384;DHT22;3733;47.994;8.820;2022-09-27T14:59:27;9.70;99.90
7384;DHT22;3733;47.994;8.820;2022-09-27T15:01:58;9.70;99.90
7384;DHT22;3733;47.994;8.820;2022-09-27T15:04:29;9.60;99.90
7384;DHT22;3733;47.994;8.820;2022-09-27T15:07:00;9.60;99.90
7384;DHT22;3733;47.994;8.820;2022-09-27T15:09:26;9.50;99.90
7384;DHT22;3733;47.994;8.820;2022-09-27T15:11:57;9.50;99.90
7384;DHT22;3733;47.994;8.820;2022-09-27T15:14:29;9.40;99.90
7384;DHT22;3733;47.994;8.820;2022-09-27T15:16:57;9.30;99.90
7384;DHT22;3733;47.994;8.820;2022-09-27T15:19:29;9.30;99.90
7384;DHT22;3733;47.994;8.820;2022-09-27T15:22:35;9.30;99.90
7384;DHT22;3733;47.994;8.820;2022-09-27T15:27:47;9.20;99.90
7384;DHT22;3733;47.994;8.820;2022-09-27T15:30:17;9.10;99.90
7384;DHT22;3733;47.994;8.820;2022-09-27T15:32:48;9.20;99.90
7384;DHT22;3733;47.994;8.820;2022-09-27T15:35:21;9.30;99.90
7384;DHT22;3733;47.994;8.820;2022-09-27T15:37:48;9.30;99.90
7384;DHT22;3733;47.994;8.820;2022-09-27T15:42:59;9.30;99.90
7384;DHT22;3733;47.994;8.820;2022-09-27T15:45:31;9.30;99.90
7384;DHT22;3733;47.994;8.820;2022-09-27T15:48:13;9.20;99.90
7384;DHT22;3733;47.994;8.820;2022-09-27T15:50:39;9.10;99.90
7384;DHT22;3733;47.994;8.820;2022-09-27T15:53:06;9.10;99.90
7384;DHT22;3733;47.994;8.820;2022-09-27T15:55:38;9.00;99.90
7384;DHT22;3733;47.994;8.820;2022-09-27T15:58:06;9.00;99.90
7384;DHT22;3733;47.994;8.820;2022-09-27T16:00:32;9.00;99.90
7384;DHT22;3733;47.994;8.820;2022-09-27T16:03:00;9.00;99.90
7384;DHT22;3733;47.994;8.820;2022-09-27T16:05:26;9.10;99.90
7384;DHT22;3733;47.994;8.820;2022-09-27T16:07:54;9.10;99.90
7384;DHT22;3733;47.994;8.820;2022-09-27T16:10:24;9.10;99.90
7384;DHT22;3733;47.994;8.820;2022-09-27T16:12:51;9.00;99.90
7384;DHT22;3733;47.994;8.820;2022-09-27T16:15:17;9.00;99.90
7384;DHT22;3733;47.994;8.820;2022-09-27T16:17:43;9.00;99.90
7384;DHT22;3733;47.994;8.820;2022-09-27T16:20:18;9.00;99.90
7384;DHT22;3733;47.994;8.820;2022-09-27T16:22:44;9.00;99.90
7384;DHT22;3733;47.994;8.820;2022-09-27T16:25:10;8.90;99.90
7384;DHT22;3733;47.994;8.820;2022-09-27T16:27:36;8.90;99.90
7384;DHT22;3733;47.994;8.820;2022-09-27T16:30:02;8.90;99.90
7384;DHT22;3733;47.994;8.820;2022-09-27T16:32:27;8.90;99.90
7384;DHT22;3733;47.994;8.820;2022-09-27T16:34:54;8.90;99.90
7384;DHT22;3733;47.994;8.820;2022-09-27T16:37:20;8.90;99.90
7384;DHT22;3733;47.994;8.820;2022-09-27T16:39:45;8.90;99.90
7384;DHT22;3733;47.994;8.820;2022-09-27T16:42:11;8.90;99.90
7384;DHT22;3733;47.994;8.820;2022-09-27T16:44:37;8.90;99.90
7384;DHT22;3733;47.994;8.820;2022-09-27T16:47:04;8.80;99.90
7384;DHT22;3733;47.994;8.820;2022-09-27T16:49:31;8.80;99.90
7384;DHT22;3733;47.994;8.820;2022-09-27T16:52:16;8.80;99.90
7384;DHT22;3733;47.994;8.820;2022-09-27T16:54:42;8.80;99.90
7384;DHT22;3733;47.994;8.820;2022-09-27T16:57:08;8.70;99.90
7384;DHT22;3733;47.994;8.820;2022-09-27T16:59:34;8.70;99.90
7384;DHT22;3733;47.994;8.820;2022-09-27T17:01:59;8.70;99.90
7384;DHT22;3733;47.994;8.820;2022-09-27T17:04:26;8.70;99.90
7384;DHT22;3733;47.994;8.820;2022-09-27T17:06:56;8.70;99.90
7384;DHT22;3733;47.994;8.820;2022-09-27T17:09:22;8.70;99.90
7384;DHT22;3733;47.994;8.820;2022-09-27T17:11:48;8.70;99.90
7384;DHT22;3733;47.994;8.820;2022-09-27T17:14:14;8.70;99.90
7384;DHT22;3733;47.994;8.820;2022-09-27T17:16:44;8.70;99.90
7384;DHT22;3733;47.994;8.820;2022-09-27T17:19:11;8.70;99.90
7384;DHT22;3733;47.994;8.820;2022-09-27T17:21:37;8.70;99.90
7384;DHT22;3733;47.994;8.820;2022-09-27T17:24:03;8.70;99.90
7384;DHT22;3733;47.994;8.820;2022-09-27T17:26:29;8.70;99.90
7384;DHT22;3733;47.994;8.820;2022-09-27T17:28:56;8.70;99.90
7384;DHT22;3733;47.994;8.820;2022-09-27T17:31:22;8.70;99.90
7384;DHT22;3733;47.994;8.820;2022-09-27T17:33:50;8.70;99.90
7384;DHT22;3733;47.994;8.820;2022-09-27T17:36:19;8.70;99.90
7384;DHT22;3733;47.994;8.820;2022-09-27T17:38:46;8.70;99.90
7384;DHT22;3733;47.994;8.820;2022-09-27T17:41:14;8.70;99.90
7384;DHT22;3733;47.994;8.820;2022-09-27T17:43:42;8.60;99.90
7384;DHT22;3733;47.994;8.820;2022-09-27T17:46:15;8.60;99.90
7384;DHT22;3733;47.994;8.820;2022-09-27T17:48:41;8.60;99.90
7384;DHT22;3733;47.994;8.820;2022-09-27T17:51:25;8.60;99.90
7384;DHT22;3733;47.994;8.820;2022-09-27T17:53:51;8.60;99.90
7384;DHT22;3733;47.994;8.820;2022-09-27T17:56:17;8.60;99.90
7384;DHT22;3733;47.994;8.820;2022-09-27T17:58:51;8.50;99.90
7384;DHT22;3733;47.994;8.820;2022-09-27T18:01:18;8.50;99.90
7384;DHT22;3733;47.994;8.820;2022-09-27T18:03:45;8.50;99.90
7384;DHT22;3733;47.994;8.820;2022-09-27T18:06:12;8.50;99.90
7384;DHT22;3733;47.994;8.820;2022-09-27T18:08:38;8.50;99.90
7384;DHT22;3733;47.994;8.820;2022-09-27T18:11:05;8.50;99.90
7384;DHT22;3733;47.994;8.820;2022-09-27T18:13:31;8.50;99.90
7384;DHT22;3733;47.994;8.820;2022-09-27T18:16:06;8.50;99.90
7384;DHT22;3733;47.994;8.820;2022-09-27T18:18:33;8.50;99.90
7384;DHT22;3733;47.994;8.820;2022-09-27T18:21:05;8.50;99.90
7384;DHT22;3733;47.994;8.820;2022-09-27T18:23:32;8.50;99.90
7384;DHT22;3733;47.994;8.820;2022-09-27T18:25:58;8.40;99.90
7384;DHT22;3733;47.994;8.820;2022-09-27T18:28:27;8.40;99.90
7384;DHT22;3733;47.994;8.820;2022-09-27T18:30:53;8.40;99.90
7384;DHT22;3733;47.994;8.820;2022-09-27T18:33:19;8.40;99.90
7384;DHT22;3733;47.994;8.820;2022-09-27T18:35:45;8.40;99.90
7384;DHT22;3733;47.994;8.820;2022-09-27T18:38:11;8.30;99.90
7384;DHT22;3733;47.994;8.820;2022-09-27T18:40:38;8.30;99.90
7384;DHT22;3733;47.994;8.820;2022-09-27T18:43:04;8.30;99.90
7384;DHT22;3733;47.994;8.820;2022-09-27T18:45:34;8.30;99.90
7384;DHT22;3733;47.994;8.820;2022-09-27T18:48:00;8.20;99.90
7384;DHT22;3733;47.994;8.820;2022-09-27T18:50:26;8.20;99.90
7384;DHT22;3733;47.994;8.820;2022-09-27T18:52:51;8.20;99.90
7384;DHT22;3733;47.994;8.820;2022-09-27T18:55:17;8.10;99.90
7384;DHT22;3733;47.994;8.820;2022-09-27T18:57:42;8.10;99.90
7384;DHT22;3733;47.994;8.820;2022-09-27T19:00:08;8.10;99.90
7384;DHT22;3733;47.994;8.820;2022-09-27T19:02:34;8.00;99.90
7384;DHT22;3733;47.994;8.820;2022-09-27T19:05:00;8.00;99.90
7384;DHT22;3733;47.994;8.820;2022-09-27T19:07:25;8.00;99.90
7384;DHT22;3733;47.994;8.820;2022-09-27T19:09:51;8.00;99.90
7384;DHT22;3733;47.994;8.820;2022-09-27T19:12:17;8.00;99.90
7384;DHT22;3733;47.994;8.820;2022-09-27T19:14:42;8.00;99.90
7384;DHT22;3733;47.994;8.820;2022-09-27T19:17:08;8.00;99.90
7384;DHT22;3733;47.994;8.820;2022-09-27T19:19:33;8.10;99.90
7384;DHT22;3733;47.994;8.820;2022-09-27T19:21:59;8.10;99.90
7384;DHT22;3733;47.994;8.820;2022-09-27T19:24:25;8.10;99.90
7384;DHT22;3733;47.994;8.820;2022-09-27T19:26:50;8.10;99.90
7384;DHT22;3733;47.994;8.820;2022-09-27T19:29:18;8.10;99.90
7384;DHT22;3733;47.994;8.820;2022-09-27T19:31:43;8.10;99.90
7384;DHT22;3733;47.994;8.820;2022-09-27T19:34:09;8.20;99.90
7384;DHT22;3733;47.994;8.820;2022-09-27T19:36:35;8.20;99.90
7384;DHT22;3733;47.994;8.820;2022-09-27T19:39:01;8.20;99.90
7384;DHT22;3733;47.994;8.820;2022-09-27T19:41:27;8.10;99.90
7384;DHT22;3733;47.994;8.820;2022-09-27T19:43:53;8.10;99.90
7384;DHT22;3733;47.994;8.820;2022-09-27T19:46:20;8.10;99.90
7384;DHT22;3733;47.994;8.820;2022-09-27T19:48:48;8.10;99.90
7384;DHT22;3733;47.994;8.820;2022-09-27T19:51:19;8.10;99.90